createdAt,value
2023-02-19T00:02:02.799Z,9.20
2023-02-19T00:04:32.565Z,9.30
2023-02-19T00:07:00.907Z,9.30
2023-02-19T00:09:29.454Z,9.30
2023-02-19T00:11:57.747Z,9.30
2023-02-19T00:14:25.980Z,9.20
2023-02-19T00:16:54.449Z,9.30
2023-02-19T00:19:23.370Z,9.20
2023-02-19T00:21:54.551Z,9.30
2023-02-19T00:24:23.606Z,9.20
2023-02-19T00:29:24.742Z,9.30
2023-02-19T00:31:53.469Z,9.30
2023-02-19T00:34:21.836Z,9.30
2023-02-19T00:36:50.430Z,9.30
2023-02-19T00:39:21.478Z,9.20
2023-02-19T00:41:50.138Z,9.20
2023-02-19T00:44:18.445Z,9.40
2023-02-19T00:46:49.777Z,9.10
2023-02-19T00:49:22.179Z,9.00
2023-02-19T00:51:52.581Z,9.00
2023-02-19T00:54:23.558Z,9.00
2023-02-19T00:56:52.917Z,8.90
2023-02-19T00:59:21.684Z,8.80
2023-02-19T01:01:50.599Z,8.90
2023-02-19T01:04:19.286Z,8.80
2023-02-19T01:09:17.961Z,8.70
2023-02-19T01:11:47.996Z,8.80
2023-02-19T01:14:16.446Z,8.70
2023-02-19T01:16:44.776Z,8.80
2023-02-19T01:19:13.723Z,8.70
2023-02-19T01:21:42.351Z,8.80
2023-02-19T01:24:12.135Z,8.80
2023-02-19T01:26:41.405Z,8.70
2023-02-19T01:31:42.234Z,8.70
2023-02-19T01:34:13.212Z,8.70
2023-02-19T01:36:42.086Z,8.70
2023-02-19T01:39:12.040Z,8.70
2023-02-19T01:41:42.672Z,8.60
2023-02-19T01:45:03.207Z,8.70
2023-02-19T01:47:33.441Z,8.60
2023-02-19T01:50:01.822Z,8.60
2023-02-19T01:52:35.110Z,8.60
2023-02-19T01:55:09.017Z,8.60
2023-02-19T01:57:44.868Z,8.60
2023-02-19T02:00:17.664Z,8.60
2023-02-19T02:02:53.736Z,8.70
2023-02-19T02:05:50.156Z,8.60
2023-02-19T02:08:38.139Z,8.60
2023-02-19T02:11:06.805Z,8.60
2023-02-19T02:13:37.831Z,8.60
2023-02-19T02:16:22.128Z,8.60
2023-02-19T02:19:03.524Z,8.70
2023-02-19T02:22:08.809Z,8.70
2023-02-19T02:25:29.587Z,8.60
2023-02-19T02:28:25.437Z,8.60
2023-02-19T02:30:59.010Z,8.60
2023-02-19T02:33:39.764Z,8.60
2023-02-19T02:36:14.234Z,8.50
2023-02-19T02:38:52.949Z,8.50
2023-02-19T02:41:24.047Z,8.50
2023-02-19T02:43:55.440Z,8.40
2023-02-19T02:46:35.369Z,8.40
2023-02-19T02:49:08.397Z,8.50
2023-02-19T02:51:44.639Z,8.40
2023-02-19T02:54:44.719Z,8.40
2023-02-19T02:57:18.150Z,8.50
2023-02-19T02:59:58.470Z,8.40
2023-02-19T03:02:31.689Z,8.40
2023-02-19T03:05:28.846Z,8.40
2023-02-19T03:08:05.749Z,8.40
2023-02-19T03:10:40.176Z,8.40
2023-02-19T03:13:34.144Z,9.10
2023-02-19T03:16:27.937Z,8.40
2023-02-19T03:19:30.517Z,8.40
2023-02-19T03:22:10.078Z,8.30
2023-02-19T03:25:01.540Z,8.30
2023-02-19T03:27:35.663Z,8.30
2023-02-19T03:30:13.021Z,8.30
2023-02-19T03:32:48.400Z,8.30
2023-02-19T03:38:01.735Z,8.30
2023-02-19T03:40:35.441Z,8.30
2023-02-19T03:43:18.521Z,8.20
2023-02-19T03:45:57.949Z,8.30
2023-02-19T03:51:19.392Z,8.20
2023-02-19T03:53:56.997Z,8.20
2023-02-19T03:56:36.353Z,8.20
2023-02-19T04:01:47.829Z,9.00
2023-02-19T04:04:24.487Z,8.30
2023-02-19T04:06:57.982Z,8.20
2023-02-19T04:09:38.013Z,8.20
2023-02-19T04:12:13.818Z,8.30
2023-02-19T04:14:49.574Z,8.30
2023-02-19T04:17:25.777Z,10.00
2023-02-19T04:19:57.828Z,9.10
2023-02-19T04:22:29.070Z,11.80
2023-02-19T04:24:57.874Z,8.30
2023-02-19T04:27:26.254Z,8.30
2023-02-19T04:29:57.606Z,8.30
2023-02-19T04:34:54.620Z,8.30
2023-02-19T04:37:22.966Z,8.30
2023-02-19T04:39:56.445Z,8.30
2023-02-19T04:42:24.805Z,8.40
2023-02-19T04:44:53.473Z,8.30
2023-02-19T04:47:21.813Z,8.30
2023-02-19T04:49:50.178Z,8.30
2023-02-19T04:52:18.677Z,8.40
2023-02-19T04:54:47.069Z,9.30
2023-02-19T04:57:16.897Z,8.40
2023-02-19T04:59:45.258Z,8.40
2023-02-19T05:02:13.701Z,8.30
2023-02-19T05:04:42.961Z,8.30
2023-02-19T05:07:11.385Z,8.40
2023-02-19T05:09:39.814Z,8.40
2023-02-19T05:12:08.530Z,8.40
2023-02-19T05:14:38.341Z,8.40
2023-02-19T05:17:06.738Z,8.40
2023-02-19T05:19:35.113Z,8.30
2023-02-19T05:22:03.503Z,8.30
2023-02-19T05:24:32.000Z,8.30
2023-02-19T05:27:00.356Z,8.30
2023-02-19T05:29:28.877Z,8.30
2023-02-19T05:31:58.781Z,8.30
2023-02-19T05:34:27.124Z,8.30
2023-02-19T05:36:55.493Z,8.20
2023-02-19T05:39:23.918Z,8.20
2023-02-19T05:41:52.244Z,8.20
2023-02-19T05:44:20.573Z,8.20
2023-02-19T05:46:48.892Z,8.10
2023-02-19T05:49:18.748Z,8.20
2023-02-19T05:51:47.140Z,8.20
2023-02-19T05:54:15.426Z,8.10
2023-02-19T05:56:44.199Z,8.20
2023-02-19T05:59:19.450Z,8.20
2023-02-19T06:01:48.732Z,8.10
2023-02-19T06:04:19.993Z,8.20
2023-02-19T06:09:18.154Z,8.10
2023-02-19T06:11:46.822Z,8.10
2023-02-19T06:14:15.771Z,8.10
2023-02-19T06:16:44.278Z,8.10
2023-02-19T06:21:46.710Z,8.00
2023-02-19T06:24:15.926Z,8.50
2023-02-19T06:29:16.543Z,7.80
2023-02-19T06:31:46.811Z,7.80
2023-02-19T06:34:15.347Z,7.70
2023-02-19T06:36:45.049Z,7.70
2023-02-19T06:39:13.425Z,7.70
2023-02-19T06:41:41.771Z,7.70
2023-02-19T06:44:11.245Z,7.70
2023-02-19T06:54:07.367Z,7.80
2023-02-19T06:56:38.382Z,7.80
2023-02-19T06:59:10.826Z,7.80
2023-02-19T07:01:40.374Z,7.80
2023-02-19T07:04:09.377Z,7.70
2023-02-19T07:06:42.883Z,7.80
2023-02-19T07:09:12.926Z,7.80
2023-02-19T07:11:41.734Z,7.10
2023-02-19T07:14:16.199Z,7.90
2023-02-19T07:16:44.789Z,8.00
2023-02-19T07:19:13.259Z,5.70
2023-02-19T07:21:42.365Z,8.00
2023-02-19T07:24:12.741Z,7.90
2023-02-19T07:26:41.349Z,7.90
2023-02-19T07:29:11.874Z,8.00
2023-02-19T07:31:40.552Z,8.00
2023-02-19T07:34:09.051Z,8.00
2023-02-19T07:36:38.732Z,8.00
2023-02-19T07:39:09.205Z,8.10
2023-02-19T07:41:40.386Z,8.10
2023-02-19T07:44:08.992Z,8.10
2023-02-19T07:46:37.297Z,8.10
2023-02-19T07:49:07.169Z,8.10
2023-02-19T07:51:35.665Z,8.10
2023-02-19T07:54:04.248Z,8.10
2023-02-19T07:56:32.652Z,8.20
2023-02-19T07:59:02.979Z,8.20
2023-02-19T08:01:48.824Z,8.20
2023-02-19T08:04:17.910Z,8.20
2023-02-19T08:06:46.251Z,8.20
2023-02-19T08:09:14.585Z,8.30
2023-02-19T08:12:00.257Z,8.40
2023-02-19T08:14:31.569Z,8.60
2023-02-19T08:17:00.021Z,8.70
2023-02-19T08:19:28.317Z,8.70
2023-02-19T08:21:56.599Z,8.50
2023-02-19T08:24:24.986Z,8.40
2023-02-19T08:26:53.574Z,8.40
2023-02-19T08:29:21.886Z,8.50
2023-02-19T08:31:51.690Z,8.40
2023-02-19T08:34:20.098Z,8.50
2023-02-19T08:36:48.497Z,8.50
2023-02-19T08:39:17.389Z,8.60
2023-02-19T08:41:47.969Z,8.90
2023-02-19T08:44:16.260Z,8.70
2023-02-19T08:46:44.627Z,8.80
2023-02-19T08:49:14.402Z,8.70
2023-02-19T08:51:42.873Z,8.80
2023-02-19T08:54:12.285Z,8.70
2023-02-19T08:56:40.599Z,8.70
2023-02-19T08:59:08.896Z,8.30
2023-02-19T09:01:37.474Z,7.90
2023-02-19T09:04:06.237Z,9.40
2023-02-19T09:06:36.022Z,8.30
2023-02-19T09:09:04.469Z,8.30
2023-02-19T09:14:02.181Z,8.00
2023-02-19T09:16:31.248Z,8.10
2023-02-19T09:18:59.518Z,8.00
2023-02-19T09:21:27.931Z,8.10
2023-02-19T09:23:57.825Z,8.10
2023-02-19T09:26:26.250Z,8.30
2023-02-19T09:28:56.024Z,8.40
2023-02-19T09:33:53.895Z,8.50
2023-02-19T09:36:22.227Z,8.60
2023-02-19T09:41:30.210Z,8.70
2023-02-19T09:44:01.004Z,8.70
2023-02-19T09:46:34.394Z,8.80
2023-02-19T09:49:08.980Z,8.90
2023-02-19T09:51:41.146Z,9.00
2023-02-19T09:54:21.502Z,9.10
2023-02-19T09:56:51.840Z,9.10
2023-02-19T09:59:24.971Z,9.10
2023-02-19T10:02:00.677Z,9.20
2023-02-19T10:04:29.413Z,9.20
2023-02-19T10:07:03.886Z,9.30
2023-02-19T10:09:32.847Z,9.30
2023-02-19T10:12:03.129Z,9.30
2023-02-19T10:14:38.800Z,9.30
2023-02-19T10:17:12.159Z,9.70
2023-02-19T10:19:40.502Z,9.20
2023-02-19T10:22:11.894Z,9.20
2023-02-19T10:24:44.477Z,9.20
2023-02-19T10:27:17.126Z,9.10
2023-02-19T10:29:48.181Z,9.00
2023-02-19T10:32:22.931Z,10.00
2023-02-19T10:35:11.321Z,9.00
2023-02-19T10:37:46.175Z,9.10
2023-02-19T10:40:20.026Z,9.20
2023-02-19T10:42:53.174Z,9.10
2023-02-19T10:45:25.657Z,9.10
2023-02-19T10:47:54.815Z,9.10
2023-02-19T10:50:30.892Z,9.20
2023-02-19T10:53:01.904Z,9.30
2023-02-19T10:55:40.761Z,9.50
2023-02-19T10:58:27.842Z,9.60
2023-02-19T11:01:22.642Z,9.70
2023-02-19T11:03:53.175Z,9.70
2023-02-19T11:06:28.190Z,9.70
2023-02-19T11:09:00.980Z,10.50
2023-02-19T11:11:36.120Z,9.30
2023-02-19T11:14:16.509Z,9.20
2023-02-19T11:16:51.990Z,9.20
2023-02-19T11:19:42.763Z,9.50
2023-02-19T11:22:31.752Z,10.00
2023-02-19T11:25:07.692Z,10.10
2023-02-19T11:27:36.161Z,9.90
2023-02-19T11:30:40.535Z,9.70
2023-02-19T11:33:27.316Z,9.70
2023-02-19T11:36:19.526Z,9.90
2023-02-19T11:38:47.982Z,10.30
2023-02-19T11:41:36.926Z,10.70
2023-02-19T11:44:30.357Z,10.70
2023-02-19T11:47:27.234Z,10.50
2023-02-19T11:50:10.697Z,10.40
2023-02-19T11:52:49.355Z,12.60
2023-02-19T11:55:42.769Z,10.10
2023-02-19T11:58:40.944Z,9.90
2023-02-19T12:01:25.279Z,10.00
2023-02-19T12:05:02.139Z,9.90
2023-02-19T12:08:18.392Z,10.40
2023-02-19T12:11:09.935Z,10.40
2023-02-19T12:14:03.343Z,10.20
2023-02-19T12:16:42.593Z,10.10
2023-02-19T12:19:39.493Z,10.00
2023-02-19T12:22:27.831Z,10.00
2023-02-19T12:25:32.832Z,10.10
2023-02-19T12:31:41.591Z,9.90
2023-02-19T12:34:32.069Z,9.90
2023-02-19T12:37:19.416Z,9.80
2023-02-19T12:40:00.852Z,9.80
2023-02-19T12:42:51.286Z,10.10
2023-02-19T12:45:25.637Z,10.20
2023-02-19T12:48:11.829Z,6.80
2023-02-19T12:50:43.252Z,10.30
2023-02-19T12:56:10.659Z,10.20
2023-02-19T12:58:47.329Z,10.10
2023-02-19T13:01:24.830Z,10.00
2023-02-19T13:04:20.664Z,10.00
2023-02-19T13:06:57.694Z,9.80
2023-02-19T13:09:35.150Z,9.80
2023-02-19T13:12:09.650Z,9.90
2023-02-19T13:14:46.890Z,9.90
2023-02-19T13:17:28.493Z,9.80
2023-02-19T13:20:03.465Z,9.50
2023-02-19T13:22:58.396Z,9.20
2023-02-19T13:25:49.751Z,8.90
2023-02-19T13:28:42.321Z,10.00
2023-02-19T13:31:40.767Z,8.80
2023-02-19T13:34:26.778Z,8.80
2023-02-19T13:36:56.446Z,8.90
2023-02-19T13:41:59.082Z,9.30
2023-02-19T13:44:31.479Z,9.40
2023-02-19T13:47:06.105Z,9.40
2023-02-19T13:49:43.203Z,9.40
2023-02-19T13:55:52.085Z,10.50
2023-02-19T13:59:01.396Z,11.60
2023-02-19T14:02:26.645Z,11.70
2023-02-19T14:05:00.105Z,10.80
2023-02-19T14:07:56.744Z,10.60
2023-02-19T14:11:02.211Z,10.80
2023-02-19T14:14:06.708Z,10.70
2023-02-19T14:16:53.677Z,10.20
2023-02-19T14:20:42.962Z,10.00
2023-02-19T14:23:18.786Z,9.90
2023-02-19T14:25:58.613Z,10.00
2023-02-19T14:28:36.710Z,10.30
2023-02-19T14:31:19.075Z,10.50
2023-02-19T14:33:52.866Z,10.80
2023-02-19T14:36:48.986Z,10.80
2023-02-19T14:39:21.850Z,10.80
2023-02-19T14:41:54.414Z,10.50
2023-02-19T14:44:26.787Z,10.20
2023-02-19T14:47:04.417Z,9.90
2023-02-19T14:49:42.691Z,9.90
2023-02-19T14:52:23.554Z,9.70
2023-02-19T14:54:56.520Z,9.70
2023-02-19T14:57:30.430Z,9.60
2023-02-19T15:00:01.635Z,9.60
2023-02-19T15:02:33.397Z,9.60
2023-02-19T15:05:15.829Z,9.50
2023-02-19T15:07:46.389Z,9.50
2023-02-19T15:10:16.563Z,9.60
2023-02-19T15:12:52.156Z,9.60
2023-02-19T15:15:25.419Z,9.60
2023-02-19T15:17:56.520Z,9.70
2023-02-19T15:20:29.099Z,10.80
2023-02-19T15:23:02.745Z,9.80
2023-02-19T15:25:37.176Z,9.80
2023-02-19T15:28:29.544Z,9.80
2023-02-19T15:31:20.188Z,9.70
2023-02-19T15:33:53.105Z,9.70
2023-02-19T15:36:31.226Z,10.20
2023-02-19T15:39:03.927Z,9.60
2023-02-19T15:41:36.140Z,9.50
2023-02-19T15:44:33.705Z,9.50
2023-02-19T15:47:13.230Z,9.40
2023-02-19T15:49:51.379Z,9.50
2023-02-19T15:52:33.881Z,9.30
2023-02-19T15:55:19.335Z,9.40
2023-02-19T15:58:03.582Z,9.30
2023-02-19T16:00:40.517Z,9.30
2023-02-19T16:03:21.984Z,9.30
2023-02-19T16:06:04.062Z,9.20
2023-02-19T16:08:35.693Z,9.20
2023-02-19T16:11:27.524Z,9.10
2023-02-19T16:14:30.332Z,9.10
2023-02-19T16:17:07.241Z,9.80
2023-02-19T16:19:48.112Z,9.10
2023-02-19T16:22:22.210Z,9.00
2023-02-19T16:24:53.593Z,9.10
2023-02-19T16:27:36.813Z,8.90
2023-02-19T16:30:10.476Z,8.90
2023-02-19T16:32:38.893Z,8.80
2023-02-19T16:35:37.883Z,8.80
2023-02-19T16:38:15.406Z,9.60
2023-02-19T16:41:13.880Z,8.80
2023-02-19T16:43:44.992Z,8.80
2023-02-19T16:46:14.672Z,8.70
2023-02-19T16:48:43.208Z,8.50
2023-02-19T16:51:27.796Z,8.20
2023-02-19T16:53:56.160Z,8.80
2023-02-19T16:56:25.410Z,7.80
2023-02-19T16:58:54.995Z,7.70
2023-02-19T17:01:27.282Z,7.60
2023-02-19T17:04:02.423Z,7.30
2023-02-19T17:06:32.775Z,6.30
2023-02-19T17:09:01.101Z,7.60
2023-02-19T17:11:29.333Z,7.60
2023-02-19T17:13:59.728Z,8.90
2023-02-19T17:19:00.310Z,7.70
2023-02-19T17:21:31.903Z,7.70
2023-02-19T17:24:00.282Z,7.80
2023-02-19T17:26:31.219Z,7.80
2023-02-19T17:29:02.936Z,7.70
2023-02-19T17:31:31.323Z,7.70
2023-02-19T17:34:00.721Z,7.70
2023-02-19T17:36:32.200Z,7.70
2023-02-19T17:39:02.591Z,7.70
2023-02-19T17:41:31.791Z,7.70
2023-02-19T17:44:01.480Z,7.50
2023-02-19T17:46:29.965Z,7.60
2023-02-19T17:48:58.709Z,7.50
2023-02-19T17:51:27.141Z,7.50
2023-02-19T17:56:27.434Z,7.50
2023-02-19T17:58:57.302Z,7.50
2023-02-19T18:01:27.110Z,7.60
2023-02-19T18:03:55.943Z,7.70
2023-02-19T18:06:24.536Z,7.60
2023-02-19T18:08:54.713Z,7.60
2023-02-19T18:11:24.640Z,7.60
2023-02-19T18:13:57.442Z,7.60
2023-02-19T18:16:27.261Z,7.70
2023-02-19T18:18:58.378Z,8.20
2023-02-19T18:21:26.947Z,7.60
2023-02-19T18:23:55.252Z,7.40
2023-02-19T18:26:24.728Z,7.40
2023-02-19T18:28:53.210Z,7.40
2023-02-19T18:31:21.724Z,7.40
2023-02-19T18:33:51.444Z,7.40
2023-02-19T18:36:19.843Z,7.40
2023-02-19T18:41:21.034Z,7.40
2023-02-19T18:43:50.303Z,7.40
2023-02-19T18:48:52.307Z,7.50
2023-02-19T18:51:23.434Z,7.60
2023-02-19T18:53:52.009Z,7.50
2023-02-19T18:56:20.360Z,7.60
2023-02-19T18:58:50.363Z,7.60
2023-02-19T19:01:18.969Z,7.60
2023-02-19T19:03:47.589Z,7.70
2023-02-19T19:06:17.209Z,7.70
2023-02-19T19:08:45.618Z,7.60
2023-02-19T19:11:14.613Z,7.60
2023-02-19T19:13:43.084Z,7.70
2023-02-19T19:16:11.372Z,7.70
2023-02-19T19:18:39.629Z,7.70
2023-02-19T19:21:09.925Z,7.70
2023-02-19T19:23:39.737Z,7.70
2023-02-19T19:26:09.891Z,7.70
2023-02-19T19:28:40.620Z,7.70
2023-02-19T19:31:09.045Z,7.80
2023-02-19T19:33:41.069Z,7.80
2023-02-19T19:36:12.090Z,7.80
2023-02-19T19:38:41.967Z,7.80
2023-02-19T19:41:10.760Z,7.80
2023-02-19T19:48:40.812Z,7.60
2023-02-19T19:53:38.752Z,7.60
2023-02-19T19:56:09.426Z,7.60
2023-02-19T20:01:09.809Z,7.60
2023-02-19T20:03:39.329Z,7.60
2023-02-19T20:06:11.824Z,7.60
2023-02-19T20:08:40.152Z,7.60
2023-02-19T20:11:10.069Z,7.60
2023-02-19T20:13:38.586Z,7.60
2023-02-19T20:16:10.819Z,7.70
2023-02-19T20:18:39.269Z,7.70
2023-02-19T20:21:10.298Z,7.60
2023-02-19T20:23:40.312Z,7.60
2023-02-19T20:26:10.380Z,7.60
2023-02-19T20:28:38.728Z,7.50
2023-02-19T20:31:09.435Z,7.70
2023-02-19T20:33:37.923Z,7.50
2023-02-19T20:36:07.564Z,10.70
2023-02-19T20:38:35.991Z,7.90
2023-02-19T20:41:04.566Z,7.50
2023-02-19T20:43:34.492Z,7.50
2023-02-19T20:46:03.337Z,7.50
2023-02-19T20:48:31.728Z,7.50
2023-02-19T20:51:02.581Z,7.50
2023-02-19T20:53:32.351Z,7.50
2023-02-19T20:56:00.867Z,7.50
2023-02-19T20:58:29.126Z,7.50
2023-02-19T21:00:58.833Z,7.50
2023-02-19T21:03:27.124Z,7.50
2023-02-19T21:08:24.208Z,7.50
2023-02-19T21:10:52.800Z,7.50
2023-02-19T21:13:21.133Z,7.60
2023-02-19T21:15:49.454Z,7.60
2023-02-19T21:18:19.931Z,7.60
2023-02-19T21:20:49.359Z,7.60
2023-02-19T21:23:17.956Z,7.60
2023-02-19T21:25:46.417Z,6.70
2023-02-19T21:30:43.376Z,7.60
2023-02-19T21:33:11.737Z,7.60
2023-02-19T21:35:41.388Z,7.60
2023-02-19T21:38:10.181Z,7.50
2023-02-19T21:40:38.541Z,7.50
2023-02-19T21:43:07.092Z,8.60
2023-02-19T21:45:35.700Z,7.50
2023-02-19T21:48:04.021Z,7.50
2023-02-19T21:53:02.554Z,7.60
2023-02-19T21:55:31.575Z,7.60
2023-02-19T21:58:00.317Z,7.60
2023-02-19T22:00:28.666Z,7.60
2023-02-19T22:05:28.417Z,7.60
2023-02-19T22:07:58.391Z,7.60
2023-02-19T22:10:28.086Z,7.50
2023-02-19T22:12:57.059Z,7.50
2023-02-19T22:17:53.972Z,7.40
2023-02-19T22:22:51.155Z,7.40
2023-02-19T22:25:19.871Z,7.40
2023-02-19T22:27:50.096Z,7.40
2023-02-19T22:30:18.983Z,7.30
2023-02-19T22:32:47.482Z,7.40
2023-02-19T22:35:16.051Z,7.60
2023-02-19T22:37:44.553Z,7.50
2023-02-19T22:40:13.970Z,7.50
2023-02-19T22:45:13.795Z,7.40
2023-02-19T22:47:43.760Z,7.50
2023-02-19T22:50:19.584Z,7.50
2023-02-19T22:52:47.917Z,7.30
2023-02-19T22:55:17.437Z,7.50
2023-02-19T22:57:45.743Z,7.40
2023-02-19T23:00:21.674Z,7.50
2023-02-19T23:05:19.138Z,7.40
2023-02-19T23:07:47.899Z,7.40
2023-02-19T23:10:16.207Z,7.40
2023-02-19T23:15:13.473Z,7.40
2023-02-19T23:17:43.237Z,7.40
2023-02-19T23:20:16.139Z,7.40
2023-02-19T23:22:44.686Z,7.40
2023-02-19T23:25:12.967Z,7.40
2023-02-19T23:27:41.322Z,7.40
2023-02-19T23:30:10.987Z,7.40
2023-02-19T23:32:40.376Z,7.30
2023-02-19T23:35:10.160Z,7.30
2023-02-19T23:37:38.571Z,7.30
2023-02-19T23:40:08.651Z,7.30
2023-02-19T23:42:37.493Z,7.30
2023-02-19T23:45:06.573Z,7.30
2023-02-19T23:47:34.877Z,7.30
2023-02-19T23:50:03.230Z,7.40
2023-02-19T23:52:32.945Z,7.40
2023-02-19T23:55:01.302Z,7.30
2023-02-19T23:59:58.272Z,7.30
